Time;durP1;ratioP1;P1;durP2;ratioP2;P2;SDS_P1;SDS_P2;PMS_P1;PMS_P2;Temp;Humidity;BMP_temperature;BMP_pressure;BME280_temperature;BME280_humidity;BME280_pressure;Samples;Min_cycle;Max_cycle;Signal;HPM_P1;HPM_P2
2021/11/21 00:02:11;;;;;;;;;;;;;;;7.76;100.00;101407.34;5055182;28;19932;-55
2021/11/21 00:04:38;;;;;;;;;;;;;;;7.76;100.00;101399.47;5050300;28;20023;-55
2021/11/21 00:07:04;;;;;;;;;;;;;;;7.76;100.00;101398.66;5052177;28;19929;-56
2021/11/21 00:09:31;;;;;;;;;;;;;;;7.77;100.00;101400.31;5051347;28;19947;-54
2021/11/21 00:11:58;;;;;;;;;;;;;;;7.71;100.00;101385.75;5051469;28;20051;-57
2021/11/21 00:14:25;;;;;;;;;;;;;;;7.70;100.00;101386.69;5049496;28;20399;-55
2021/11/21 00:16:56;;;;;;;;;;;;;;;7.70;100.00;101383.19;5068577;28;19925;-55
2021/11/21 00:19:23;;;;;;;;;;;;;;;7.69;100.00;101391.97;5051794;28;19925;-57
2021/11/21 00:21:50;;;;;;;;;;;;;;;7.75;100.00;101384.69;5053274;28;19960;-56
2021/11/21 00:24:17;;;;;;;;;;;;;;;7.74;100.00;101375.16;5053546;28;19982;-49
2021/11/21 00:26:43;;;;;;;;;;;;;;;7.74;100.00;101376.91;5051279;28;20015;-51
2021/11/21 00:29:10;;;;;;;;;;;;;;;7.71;100.00;101364.78;5049490;28;19932;-51
2021/11/21 00:31:37;;;;;;;;;;;;;;;7.72;100.00;101365.66;5054436;28;19963;-51
2021/11/21 00:34:03;;;;;;;;;;;;;;;7.72;100.00;101365.66;5053549;28;20307;-53
2021/11/21 00:36:30;;;;;;;;;;;;;;;7.74;100.00;101362.06;5051652;28;20769;-51
2021/11/21 00:38:57;;;;;;;;;;;;;;;7.68;100.00;101358.88;5051349;28;20372;-51
2021/11/21 00:41:23;;;;;;;;;;;;;;;7.77;100.00;101358.44;5051618;28;19974;-52
2021/11/21 00:43:50;;;;;;;;;;;;;;;7.74;100.00;101348.97;5050142;28;20656;-56
2021/11/21 00:46:16;;;;;;;;;;;;;;;7.71;100.00;101351.69;5050884;28;20375;-56
2021/11/21 00:48:44;;;;;;;;;;;;;;;7.72;100.00;101353.41;5050020;28;19924;-55
2021/11/21 00:51:11;;;;;;;;;;;;;;;7.71;100.00;101353.47;5052645;28;19928;-52
2021/11/21 00:53:41;;;;;;;;;;;;;;;7.76;100.00;101356.75;5051807;28;19929;-51
2021/11/21 00:56:09;;;;;;;;;;;;;;;7.75;100.00;101352.44;5051287;28;19932;-53
2021/11/21 00:58:36;;;;;;;;;;;;;;;7.72;100.00;101339.47;5053119;28;19925;-51
2021/11/21 01:01:03;;;;;;;;;;;;;;;7.73;100.00;101341.16;5053690;28;19925;-56
2021/11/21 01:03:30;;;;;;;;;;;;;;;7.77;100.00;101329.63;5050096;28;20294;-56
2021/11/21 01:05:57;;;;;;;;;;;;;;;7.69;100.00;101340.47;5049741;28;19967;-57
2021/11/21 01:08:24;;;;;;;;;;;;;;;7.60;100.00;101336.47;5050503;28;19978;-56
2021/11/21 01:10:55;;;;;;;;;;;;;;;7.60;100.00;101333.84;5050823;28;19990;-54
2021/11/21 01:13:23;;;;;;;;;;;;;;;7.60;100.00;101326.00;5035854;28;19924;-56
2021/11/21 01:15:50;;;;;;;;;;;;;;;7.64;100.00;101326.72;5052134;28;19925;-55
2021/11/21 01:18:16;;;;;;;;;;;;;;;7.67;100.00;101320.50;5066472;28;19929;-56
2021/11/21 01:20:43;;;;;;;;;;;;;;;7.69;100.00;101319.53;5050357;28;20304;-56
2021/11/21 01:23:11;;;;;;;;;;;;;;;7.69;100.00;101313.41;5052762;28;20438;-50
2021/11/21 01:25:39;;;;;;;;;;;;;;;7.70;100.00;101309.88;5050237;28;20010;-51
2021/11/21 01:28:06;;;;;;;;;;;;;;;7.74;100.00;101316.69;5050981;28;19931;-51
2021/11/21 01:30:32;;;;;;;;;;;;;;;7.66;100.00;101318.78;5048465;28;20717;-49
2021/11/21 01:32:59;;;;;;;;;;;;;;;7.68;100.00;101317.81;5050790;28;19951;-53
2021/11/21 01:35:26;;;;;;;;;;;;;;;7.68;100.00;101316.97;5050140;28;20388;-50
2021/11/21 01:37:53;;;;;;;;;;;;;;;7.64;100.00;101318.03;5050238;28;19925;-49
2021/11/21 01:40:20;;;;;;;;;;;;;;;7.70;100.00;101317.75;5050610;28;19940;-51
2021/11/21 01:42:47;;;;;;;;;;;;;;;7.68;100.00;101323.06;5050101;28;20315;-51
2021/11/21 01:45:14;;;;;;;;;;;;;;;7.70;100.00;101322.97;5063906;28;19925;-49
2021/11/21 01:47:42;;;;;;;;;;;;;;;7.68;100.00;101309.97;5050369;28;20364;-51
2021/11/21 01:50:09;;;;;;;;;;;;;;;7.70;100.00;101309.88;5050486;28;19974;-49
2021/11/21 01:52:36;;;;;;;;;;;;;;;7.70;100.00;101307.28;5067515;28;19925;-49
2021/11/21 01:55:03;;;;;;;;;;;;;;;7.62;100.00;101302.38;5052931;28;19929;-51
2021/11/21 01:57:30;;;;;;;;;;;;;;;7.67;100.00;101295.16;5049734;28;19955;-52
2021/11/21 02:00:01;;;;;;;;;;;;;;;7.72;100.00;101293.19;5050306;28;19931;-50
2021/11/21 02:02:28;;;;;;;;;;;;;;;7.70;100.00;101288.94;5066278;28;19932;-49
2021/11/21 02:04:55;;;;;;;;;;;;;;;7.74;100.00;101288.75;5050051;28;19932;-52
2021/11/21 02:07:22;;;;;;;;;;;;;;;7.68;100.00;101280.31;5065265;28;19929;-48
2021/11/21 02:09:48;;;;;;;;;;;;;;;7.69;100.00;101274.16;5049525;28;19929;-47
2021/11/21 02:12:15;;;;;;;;;;;;;;;7.70;100.00;101268.88;5050363;28;20477;-50
2021/11/21 02:14:42;;;;;;;;;;;;;;;7.70;100.00;101273.22;5049717;28;19929;-52
2021/11/21 02:17:08;;;;;;;;;;;;;;;7.75;100.00;101268.63;5052907;28;19931;-49
2021/11/21 02:19:35;;;;;;;;;;;;;;;7.69;100.00;101261.06;5050269;28;19924;-50
2021/11/21 02:22:02;;;;;;;;;;;;;;;7.71;100.00;101254.00;5050188;28;19928;-47
2021/11/21 02:24:29;;;;;;;;;;;;;;;7.69;100.00;101251.44;5049710;28;20289;-49
2021/11/21 02:26:56;;;;;;;;;;;;;;;7.72;100.00;101246.06;5049457;28;19928;-50
2021/11/21 02:29:23;;;;;;;;;;;;;;;7.73;100.00;101244.28;5048781;28;19947;-47
2021/11/21 02:31:49;;;;;;;;;;;;;;;7.72;100.00;101229.50;5049626;28;19928;-48
2021/11/21 02:34:16;;;;;;;;;;;;;;;7.70;100.00;101232.22;5050236;28;19928;-47
2021/11/21 02:36:43;;;;;;;;;;;;;;;7.75;100.00;101245.06;5051694;28;19932;-47
2021/11/21 02:39:13;;;;;;;;;;;;;;;7.69;100.00;101230.50;5052671;28;19936;-56
2021/11/21 02:41:40;;;;;;;;;;;;;;;7.74;100.00;101230.28;5053653;28;19929;-54
2021/11/21 02:44:07;;;;;;;;;;;;;;;7.71;100.00;101220.78;5052197;28;19994;-56
2021/11/21 02:46:36;;;;;;;;;;;;;;;7.71;100.00;101217.34;5052478;28;19925;-55
2021/11/21 02:49:03;;;;;;;;;;;;;;;7.65;100.00;101212.38;5053250;28;20446;-56
2021/11/21 02:51:30;;;;;;;;;;;;;;;7.70;100.00;101208.66;5054585;28;19929;-54
2021/11/21 02:53:56;;;;;;;;;;;;;;;7.72;100.00;101208.56;5054675;28;19929;-56
2021/11/21 02:56:23;;;;;;;;;;;;;;;7.73;100.00;101200.63;5053029;28;19924;-54
2021/11/21 02:58:50;;;;;;;;;;;;;;;7.76;100.00;101204.88;5055018;28;20335;-55
2021/11/21 03:01:18;;;;;;;;;;;;;;;7.72;100.00;101196.31;5056090;28;20326;-55
2021/11/21 03:03:45;;;;;;;;;;;;;;;7.70;100.00;101197.31;5052796;28;20062;-53
2021/11/21 03:06:12;;;;;;;;;;;;;;;7.73;100.00;101191.91;5068323;28;19935;-54
2021/11/21 03:08:39;;;;;;;;;;;;;;;7.77;100.00;101185.59;5054328;28;19974;-55
2021/11/21 03:11:18;;;;;;;;;;;;;;;7.74;100.00;101184.00;5053044;28;20395;-56
2021/11/21 03:13:45;;;;;;;;;;;;;;;7.72;100.00;101185.00;5051116;28;19983;-54
2021/11/21 03:16:12;;;;;;;;;;;;;;;7.71;100.00;101185.91;5055688;28;19939;-52
2021/11/21 03:18:38;;;;;;;;;;;;;;;7.67;100.00;101179.97;5071212;28;19929;-53
2021/11/21 03:21:05;;;;;;;;;;;;;;;7.69;100.00;101182.50;5055539;28;20304;-56
2021/11/21 03:23:32;;;;;;;;;;;;;;;7.75;100.00;101174.38;5053514;28;19928;-55
2021/11/21 03:25:58;;;;;;;;;;;;;;;7.70;100.00;101173.75;5052533;28;19932;-55
2021/11/21 03:28:25;;;;;;;;;;;;;;;7.68;100.00;101171.19;5052309;28;19928;-56
2021/11/21 03:30:52;;;;;;;;;;;;;;;7.68;100.00;101165.97;5065932;28;19924;-55
2021/11/21 03:33:19;;;;;;;;;;;;;;;7.68;100.00;101168.59;5052920;28;19929;-54
2021/11/21 03:35:45;;;;;;;;;;;;;;;7.70;100.00;101160.66;5055037;28;20009;-56
2021/11/21 03:38:12;;;;;;;;;;;;;;;7.68;100.00;101160.72;5053394;28;19928;-56
2021/11/21 03:40:39;;;;;;;;;;;;;;;7.69;100.00;101156.34;5051785;28;19929;-53
2021/11/21 03:43:05;;;;;;;;;;;;;;;7.68;100.00;101155.50;5052132;28;19925;-54
2021/11/21 03:45:32;;;;;;;;;;;;;;;7.70;100.00;101151.06;5050150;28;20407;-52
2021/11/21 03:47:59;;;;;;;;;;;;;;;7.73;100.00;101150.03;5051896;28;19925;-55
2021/11/21 03:50:26;;;;;;;;;;;;;;;7.73;100.00;101147.41;5050522;28;19971;-55
2021/11/21 03:52:53;;;;;;;;;;;;;;;7.72;100.00;101150.97;5052517;28;19924;-54
2021/11/21 03:55:19;;;;;;;;;;;;;;;7.79;100.00;101152.34;5035950;28;19931;-49
2021/11/21 03:57:47;;;;;;;;;;;;;;;7.74;100.00;101149.97;5070100;28;20402;-55
2021/11/21 04:00:15;;;;;;;;;;;;;;;7.75;100.00;101142.97;5069964;28;20334;-52
2021/11/21 04:02:41;;;;;;;;;;;;;;;7.76;100.00;101137.66;5054612;28;19939;-51
2021/11/21 04:05:09;;;;;;;;;;;;;;;7.76;100.00;101136.81;5069786;28;19932;-56
2021/11/21 04:07:36;;;;;;;;;;;;;;;7.75;100.00;101130.69;5054646;28;19925;-53
2021/11/21 04:10:03;;;;;;;;;;;;;;;7.74;100.00;101121.19;5051777;28;19952;-50
2021/11/21 04:12:30;;;;;;;;;;;;;;;7.82;100.00;101125.19;5067549;28;20370;-50
2021/11/21 04:14:57;;;;;;;;;;;;;;;7.76;100.00;101116.69;5054411;28;19924;-55
2021/11/21 04:17:24;;;;;;;;;;;;;;;7.71;100.00;101110.84;5054431;28;20383;-57
2021/11/21 04:19:50;;;;;;;;;;;;;;;7.65;100.00;101112.91;5054573;28;20288;-56
2021/11/21 04:22:17;;;;;;;;;;;;;;;7.70;100.00;101114.41;5054467;28;19925;-55
2021/11/21 04:24:43;;;;;;;;;;;;;;;7.68;100.00;101112.78;5051325;28;19982;-54
2021/11/21 04:27:11;;;;;;;;;;;;;;;7.68;100.00;101110.16;5052023;28;19925;-56
2021/11/21 04:29:38;;;;;;;;;;;;;;;7.70;100.00;101116.16;5054083;28;19970;-52
2021/11/21 04:32:05;;;;;;;;;;;;;;;7.70;100.00;101108.28;5054280;28;19929;-47
2021/11/21 04:34:32;;;;;;;;;;;;;;;7.71;100.00;101113.44;5054422;28;19953;-48
2021/11/21 04:36:59;;;;;;;;;;;;;;;7.75;100.00;101114.16;5069166;28;19974;-51
2021/11/21 04:39:26;;;;;;;;;;;;;;;7.75;100.00;101112.38;5050681;28;19924;-51
2021/11/21 04:41:53;;;;;;;;;;;;;;;7.72;100.00;101116.94;5051146;28;19925;-50
2021/11/21 04:44:21;;;;;;;;;;;;;;;7.68;100.00;101118.00;5048994;28;19924;-51
2021/11/21 04:46:47;;;;;;;;;;;;;;;7.70;100.00;101119.63;5066466;28;19974;-53
2021/11/21 04:49:14;;;;;;;;;;;;;;;7.73;100.00;101113.38;5051256;28;19929;-47
2021/11/21 04:51:41;;;;;;;;;;;;;;;7.74;100.00;101112.47;5051250;28;20384;-50
2021/11/21 04:54:14;;;;;;;;;;;;;;;7.76;100.00;101110.63;5066009;28;19929;-55
2021/11/21 04:56:41;;;;;;;;;;;;;;;7.75;100.00;101109.75;5050620;28;19948;-56
2021/11/21 04:59:08;;;;;;;;;;;;;;;7.73;100.00;101114.25;5064265;28;19929;-50
2021/11/21 05:01:35;;;;;;;;;;;;;;;7.79;100.00;101121.78;5049384;28;19979;-54
2021/11/21 05:04:02;;;;;;;;;;;;;;;7.84;100.00;101118.09;5051313;28;19970;-56
2021/11/21 05:06:28;;;;;;;;;;;;;;;7.85;100.00;101114.56;5053048;28;20008;-55
2021/11/21 05:08:55;;;;;;;;;;;;;;;7.81;100.00;101119.06;5053607;28;19929;-57
2021/11/21 05:11:22;;;;;;;;;;;;;;;7.78;100.00;101119.25;5053588;28;20287;-56
2021/11/21 05:13:49;;;;;;;;;;;;;;;7.82;100.00;101118.16;5052780;28;20384;-55
2021/11/21 05:16:15;;;;;;;;;;;;;;;7.79;100.00;101111.31;5053627;28;20362;-54
2021/11/21 05:18:42;;;;;;;;;;;;;;;7.82;100.00;101118.16;5050953;28;19925;-55
2021/11/21 05:21:09;;;;;;;;;;;;;;;7.83;100.00;101117.25;5066057;28;19932;-55
2021/11/21 05:23:37;;;;;;;;;;;;;;;7.85;100.00;101123.25;5050430;28;19928;-52
2021/11/21 05:26:04;;;;;;;;;;;;;;;7.85;100.00;101117.16;5051516;28;19940;-50
2021/11/21 05:28:31;;;;;;;;;;;;;;;7.84;100.00;101118.09;5052292;28;19936;-50
2021/11/21 05:30:57;;;;;;;;;;;;;;;7.85;100.00;101117.16;5068587;28;19932;-52
2021/11/21 05:33:24;;;;;;;;;;;;;;;7.84;100.00;101111.09;5051840;28;19931;-51
2021/11/21 05:35:51;;;;;;;;;;;;;;;7.83;100.00;101114.63;5053328;28;19929;-51
2021/11/21 05:38:17;;;;;;;;;;;;;;;7.88;100.00;101122.25;5053366;28;19932;-50
2021/11/21 05:40:44;;;;;;;;;;;;;;;7.89;100.00;101116.94;5051889;28;19925;-53
2021/11/21 05:43:11;;;;;;;;;;;;;;;7.89;100.00;101116.94;5051468;28;19948;-51
2021/11/21 05:45:41;;;;;;;;;;;;;;;7.93;100.00;101118.50;5048510;28;20413;-52
2021/11/21 05:48:08;;;;;;;;;;;;;;;7.94;100.00;101121.97;5052765;28;20031;-54
2021/11/21 05:50:35;;;;;;;;;;;;;;;7.94;100.00;101121.97;5049057;28;19929;-57
2021/11/21 05:53:01;;;;;;;;;;;;;;;7.91;100.00;101117.72;5049810;28;19975;-51
2021/11/21 05:55:28;;;;;;;;;;;;;;;7.94;100.00;101124.56;5053105;28;20404;-57
2021/11/21 05:57:55;;;;;;;;;;;;;;;7.95;100.00;101128.91;5051428;28;19924;-57
2021/11/21 06:00:23;;;;;;;;;;;;;;;7.93;100.00;101128.13;5048077;28;19932;-57
2021/11/21 06:02:50;;;;;;;;;;;;;;;7.94;100.00;101125.41;5049177;28;19929;-56
2021/11/21 06:05:17;;;;;;;;;;;;;;;7.95;100.00;101121.88;5050613;28;19931;-57
2021/11/21 06:07:44;;;;;;;;;;;;;;;7.93;100.00;101115.00;5050351;28;19979;-58
2021/11/21 06:10:11;;;;;;;;;;;;;;;7.95;100.00;101113.19;5049005;28;19932;-58
2021/11/21 06:12:37;;;;;;;;;;;;;;;7.97;100.00;101110.47;5048968;28;19964;-56
2021/11/21 06:15:05;;;;;;;;;;;;;;;7.97;100.00;101115.72;5052384;28;19925;-54
2021/11/21 06:17:31;;;;;;;;;;;;;;;7.97;100.00;101113.94;5052227;28;19929;-54
2021/11/21 06:19:58;;;;;;;;;;;;;;;7.98;100.00;101113.03;5048805;28;19928;-54
2021/11/21 06:22:25;;;;;;;;;;;;;;;7.94;100.00;101109.69;5050656;28;20296;-56
2021/11/21 06:24:52;;;;;;;;;;;;;;;8.01;100.00;101109.41;5050134;28;19980;-48
2021/11/21 06:27:18;;;;;;;;;;;;;;;8.00;100.00;101115.56;5050050;28;19932;-57
2021/11/21 06:29:45;;;;;;;;;;;;;;;7.93;100.00;101112.41;5047897;28;20023;-51
2021/11/21 06:32:12;;;;;;;;;;;;;;;7.94;100.00;101114.09;5065351;28;19932;-49
2021/11/21 06:34:38;;;;;;;;;;;;;;;7.91;100.00;101109.84;5048588;28;19932;-53
2021/11/21 06:37:06;;;;;;;;;;;;;;;7.92;100.00;101115.94;5065751;28;19935;-54
2021/11/21 06:39:33;;;;;;;;;;;;;;;7.95;100.00;101113.19;5031396;28;20300;-55
2021/11/21 06:42:00;;;;;;;;;;;;;;;7.93;100.00;101113.25;5065403;28;19933;-55
2021/11/21 06:44:27;;;;;;;;;;;;;;;7.93;100.00;101115.88;5048067;28;19929;-57
2021/11/21 06:46:54;;;;;;;;;;;;;;;7.93;100.00;101112.41;5049632;28;19932;-57
2021/11/21 06:49:22;;;;;;;;;;;;;;;7.90;100.00;101113.41;5050007;28;19924;-51
2021/11/21 06:51:49;;;;;;;;;;;;;;;7.90;100.00;101118.63;5049821;28;20326;-55
2021/11/21 06:54:15;;;;;;;;;;;;;;;7.87;100.00;101121.41;5048690;28;20400;-55
2021/11/21 06:56:43;;;;;;;;;;;;;;;7.90;100.00;101120.41;5048940;28;19932;-56
2021/11/21 06:59:09;;;;;;;;;;;;;;;7.90;100.00;101118.63;5048328;28;19974;-56
2021/11/21 07:01:37;;;;;;;;;;;;;;;7.92;100.00;101121.16;5048781;28;20276;-57
2021/11/21 07:04:04;;;;;;;;;;;;;;;7.89;100.00;101122.16;5050196;28;19970;-56
2021/11/21 07:06:38;;;;;;;;;;;;;;;7.90;100.00;101123.03;5049548;28;19936;-57
2021/11/21 07:09:05;;;;;;;;;;;;;;;7.92;100.00;101134.25;5049138;28;20031;-55
2021/11/21 07:11:32;;;;;;;;;;;;;;;7.91;100.00;101124.75;5066316;28;19925;-56
2021/11/21 07:13:59;;;;;;;;;;;;;;;7.88;100.00;101124.88;5052051;28;19925;-55
2021/11/21 07:16:26;;;;;;;;;;;;;;;7.88;100.00;101127.47;5052390;28;19925;-56
2021/11/21 07:18:53;;;;;;;;;;;;;;;7.87;100.00;101125.81;5052597;28;19932;-56
2021/11/21 07:21:19;;;;;;;;;;;;;;;7.85;100.00;101138.94;5052265;28;20364;-55
2021/11/21 07:23:46;;;;;;;;;;;;;;;7.88;100.00;101135.34;5054867;28;19960;-51
2021/11/21 07:26:13;;;;;;;;;;;;;;;7.89;100.00;101140.50;5052981;28;19929;-51
2021/11/21 07:28:40;;;;;;;;;;;;;;;7.85;100.00;101136.34;5051943;28;19924;-51
2021/11/21 07:31:07;;;;;;;;;;;;;;;7.90;100.00;101149.22;5051003;28;19936;-48
2021/11/21 07:33:34;;;;;;;;;;;;;;;7.87;100.00;101147.59;5051386;28;19929;-51
2021/11/21 07:36:02;;;;;;;;;;;;;;;7.86;100.00;101148.50;5053076;28;19955;-50
2021/11/21 07:38:28;;;;;;;;;;;;;;;7.87;100.00;101150.22;5052596;28;19925;-50
2021/11/21 07:40:55;;;;;;;;;;;;;;;7.89;100.00;101150.97;5055245;28;20356;-52
2021/11/21 07:43:22;;;;;;;;;;;;;;;7.86;100.00;101140.66;5054972;28;19933;-56
2021/11/21 07:45:49;;;;;;;;;;;;;;;7.87;100.00;101144.97;5048957;28;19924;-56
2021/11/21 07:48:16;;;;;;;;;;;;;;;7.89;100.00;101148.34;5068193;28;19929;-56
2021/11/21 07:50:43;;;;;;;;;;;;;;;7.90;100.00;101151.84;5052455;28;19924;-49
2021/11/21 07:53:09;;;;;;;;;;;;;;;7.87;100.00;101149.38;5052652;28;19931;-48
2021/11/21 07:55:36;;;;;;;;;;;;;;;7.89;100.00;101148.34;5051963;28;19936;-49
2021/11/21 07:58:03;;;;;;;;;;;;;;;7.84;100.00;101157.38;5052795;28;20362;-56
2021/11/21 08:00:29;;;;;;;;;;;;;;;7.84;100.00;101154.75;5049348;28;20308;-56
2021/11/21 08:02:57;;;;;;;;;;;;;;;7.82;100.00;101156.59;5052696;28;20012;-56
2021/11/21 08:05:24;;;;;;;;;;;;;;;7.82;100.00;101152.19;5052278;28;19932;-54
2021/11/21 08:07:51;;;;;;;;;;;;;;;7.84;100.00;101159.97;5067782;28;19925;-51
2021/11/21 08:10:18;;;;;;;;;;;;;;;7.90;100.00;101157.91;5070050;28;19979;-55
2021/11/21 08:12:44;;;;;;;;;;;;;;;7.91;100.00;101149.16;5054932;28;19996;-55
2021/11/21 08:15:11;;;;;;;;;;;;;;;7.92;100.00;101158.69;5052296;28;20288;-50
2021/11/21 08:17:37;;;;;;;;;;;;;;;7.95;100.00;101169.03;5051950;28;19932;-53
2021/11/21 08:20:04;;;;;;;;;;;;;;;7.97;100.00;101165.50;5054040;28;19947;-50
2021/11/21 08:22:31;;;;;;;;;;;;;;;8.00;100.00;101165.31;5050886;28;20466;-56
2021/11/21 08:24:58;;;;;;;;;;;;;;;8.00;100.00;101163.53;5051532;28;19929;-47
2021/11/21 08:27:24;;;;;;;;;;;;;;;8.00;100.00;101175.81;5051610;28;19929;-51
2021/11/21 08:29:51;;;;;;;;;;;;;;;8.05;100.00;101174.66;5050043;28;19940;-54
2021/11/21 08:32:18;;;;;;;;;;;;;;;8.06;100.00;101180.75;5050159;28;19932;-54
2021/11/21 08:34:45;;;;;;;;;;;;;;;8.05;100.00;101184.28;5050577;28;19978;-53
2021/11/21 08:37:12;;;;;;;;;;;;;;;8.07;100.00;101177.19;5052850;28;20056;-56
2021/11/21 08:39:39;;;;;;;;;;;;;;;8.06;100.00;101186.00;5050908;28;19933;-56
2021/11/21 08:42:05;;;;;;;;;;;;;;;8.04;100.00;101187.81;5066717;28;20059;-51
2021/11/21 08:44:32;;;;;;;;;;;;;;;8.02;100.00;101189.69;5064898;28;19937;-49
2021/11/21 08:46:59;;;;;;;;;;;;;;;8.06;100.00;101176.34;5049782;28;19929;-55
2021/11/21 08:49:26;;;;;;;;;;;;;;;8.06;100.00;101191.22;5053535;28;19925;-48
2021/11/21 08:51:53;;;;;;;;;;;;;;;8.09;100.00;101191.06;5051467;28;19936;-51
2021/11/21 08:54:19;;;;;;;;;;;;;;;8.07;100.00;101195.53;5051712;28;19970;-52
2021/11/21 08:56:47;;;;;;;;;;;;;;;8.11;100.00;101197.94;5052730;28;19956;-56
2021/11/21 08:59:14;;;;;;;;;;;;;;;8.16;100.00;101199.47;5049871;28;19959;-55
2021/11/21 09:01:42;;;;;;;;;;;;;;;8.19;100.00;101197.53;5050263;28;19975;-55
2021/11/21 09:04:10;;;;;;;;;;;;;;;8.19;100.00;101200.16;5053281;28;19925;-53
2021/11/21 09:06:37;;;;;;;;;;;;;;;8.22;100.00;101207.03;5066034;28;19964;-55
2021/11/21 09:09:04;;;;;;;;;;;;;;;8.21;100.00;101203.56;5049811;28;19990;-50
2021/11/21 09:11:30;;;;;;;;;;;;;;;8.18;100.00;101200.25;5050647;28;19932;-52
2021/11/21 09:14:02;;;;;;;;;;;;;;;8.19;100.00;101207.19;5048673;28;20568;-56
2021/11/21 09:16:29;;;;;;;;;;;;;;;8.22;100.00;101207.91;5049902;28;19975;-56
2021/11/21 09:18:56;;;;;;;;;;;;;;;8.19;100.00;101208.03;5053357;28;20388;-49
2021/11/21 09:21:23;;;;;;;;;;;;;;;8.20;100.00;101201.88;5066255;28;19932;-50
2021/11/21 09:23:49;;;;;;;;;;;;;;;8.28;100.00;101196.25;5050654;28;20753;-51
2021/11/21 09:26:16;;;;;;;;;;;;;;;8.36;100.00;101201.97;5066376;28;20406;-49
2021/11/21 09:28:43;;;;;;;;;;;;;;;8.39;100.00;101195.72;5049615;28;19948;-51
2021/11/21 09:31:09;;;;;;;;;;;;;;;8.47;100.00;101211.94;5049457;28;20283;-47
2021/11/21 09:33:36;;;;;;;;;;;;;;;8.38;100.00;101209.75;5050623;28;19950;-55
2021/11/21 09:36:05;;;;;;;;;;;;;;;8.39;100.00;101208.81;5050670;28;19925;-55
2021/11/21 09:38:32;;;;;;;;;;;;;;;8.41;100.00;101202.59;5050284;28;19937;-55
2021/11/21 09:40:58;;;;;;;;;;;;;;;8.37;100.00;101211.53;5050037;28;19929;-49
2021/11/21 09:43:25;;;;;;;;;;;;;;;8.36;100.00;101214.22;5050232;28;20353;-55
2021/11/21 09:45:52;;;;;;;;;;;;;;;8.39;100.00;101212.28;5050694;28;19933;-49
2021/11/21 09:48:18;;;;;;;;;;;;;;;8.41;100.00;101213.06;5052992;28;19924;-51
2021/11/21 09:50:45;;;;;;;;;;;;;;;8.43;100.00;101216.44;5048651;28;20150;-55
2021/11/21 09:53:13;;;;;;;;;;;;;;;8.46;100.00;101218.94;5050640;28;19932;-56
2021/11/21 09:55:39;;;;;;;;;;;;;;;8.51;100.00;101218.72;5049873;28;19964;-56
2021/11/21 09:58:06;;;;;;;;;;;;;;;8.50;100.00;101219.63;5068265;28;19925;-48
2021/11/21 10:00:34;;;;;;;;;;;;;;;8.50;100.00;101217.03;5052482;28;19947;-56
2021/11/21 10:03:05;;;;;;;;;;;;;;;8.54;100.00;101215.94;5050760;28;19948;-56
2021/11/21 10:05:33;;;;;;;;;;;;;;;8.51;100.00;101220.47;5050130;28;19947;-50
2021/11/21 10:08:03;;;;;;;;;;;;;;;8.49;100.00;101215.31;5065298;28;20024;-52
2021/11/21 10:10:34;;;;;;;;;;;;;;;8.49;100.00;101204.81;5049546;28;20342;-51
2021/11/21 10:13:01;;;;;;;;;;;;;;;8.50;100.00;101217.03;5049980;28;19925;-52
2021/11/21 10:15:28;;;;;;;;;;;;;;;8.50;100.00;101209.16;5062840;28;19978;-56
2021/11/21 10:17:55;;;;;;;;;;;;;;;8.54;100.00;101213.31;5050422;28;20383;-56
2021/11/21 10:20:22;;;;;;;;;;;;;;;8.50;100.00;101214.41;5050094;28;19932;-57
2021/11/21 10:23:03;;;;;;;;;;;;;;;8.49;99.67;101220.56;5050057;28;19925;-56
2021/11/21 10:25:37;;;;;;;;;;;;;;;8.49;99.44;101210.06;5052646;28;19925;-56
2021/11/21 10:28:03;;;;;;;;;;;;;;;8.48;99.76;101203.16;5052537;28;19932;-54
2021/11/21 10:30:30;;;;;;;;;;;;;;;8.45;98.18;101209.41;5050337;28;19935;-56
2021/11/21 10:33:03;;;;;;;;;;;;;;;8.44;98.40;101212.91;5050082;28;20655;-55
2021/11/21 10:35:30;;;;;;;;;;;;;;;8.51;97.64;101212.63;5051337;28;19969;-49
2021/11/21 10:37:58;;;;;;;;;;;;;;;8.53;98.54;101205.53;5048549;28;19925;-49
2021/11/21 10:40:25;;;;;;;;;;;;;;;8.50;97.08;101203.91;5048596;28;20753;-53
2021/11/21 10:42:52;;;;;;;;;;;;;;;8.50;98.40;101211.78;5049259;28;19924;-50
2021/11/21 10:45:20;;;;;;;;;;;;;;;8.58;99.05;101203.53;5062320;28;19931;-52
2021/11/21 10:47:51;;;;;;;;;;;;;;;8.52;95.42;101204.69;5048813;28;19951;-51
2021/11/21 10:50:31;;;;;;;;;;;;;;;8.54;95.86;101213.31;5051521;28;19924;-53
2021/11/21 10:53:01;;;;;;;;;;;;;;;8.59;96.34;101207.84;5048941;28;19925;-56
2021/11/21 10:55:27;;;;;;;;;;;;;;;8.63;96.14;101205.00;5049511;28;19936;-49
2021/11/21 10:57:54;;;;;;;;;;;;;;;8.60;95.58;101207.78;5054852;28;19936;-50
2021/11/21 11:00:22;;;;;;;;;;;;;;;8.57;96.27;101205.28;5068082;28;19924;-50
2021/11/21 11:02:49;;;;;;;;;;;;;;;8.56;98.30;101203.63;5067313;28;20612;-51
2021/11/21 11:05:17;;;;;;;;;;;;;;;8.46;97.75;101197.97;5055679;28;20301;-52
2021/11/21 11:07:47;;;;;;;;;;;;;;;8.53;97.64;101192.44;5052483;28;20443;-54
2021/11/21 11:10:15;;;;;;;;;;;;;;;8.52;96.55;101206.44;5052340;28;19925;-54
2021/11/21 11:12:42;;;;;;;;;;;;;;;8.43;96.57;101200.72;5054296;28;19925;-57
2021/11/21 11:15:09;;;;;;;;;;;;;;;8.50;96.94;101195.22;5055857;28;19925;-57
2021/11/21 11:17:36;;;;;;;;;;;;;;;8.48;97.13;101200.53;5055926;28;19932;-56
2021/11/21 11:20:04;;;;;;;;;;;;;;;8.44;97.45;101196.34;5068098;28;20406;-56
2021/11/21 11:22:31;;;;;;;;;;;;;;;8.42;96.56;101185.06;5052016;28;19947;-57
2021/11/21 11:24:59;;;;;;;;;;;;;;;8.40;97.43;101190.41;5051768;28;19932;-57
2021/11/21 11:27:41;;;;;;;;;;;;;;;8.45;96.11;101187.56;5052100;28;20394;-52
2021/11/21 11:30:08;;;;;;;;;;;;;;;8.45;97.44;101182.31;5065845;28;20349;-57
2021/11/21 11:32:37;;;;;;;;;;;;;;;8.42;97.77;101185.91;5066376;28;20041;-54
2021/11/21 11:35:04;;;;;;;;;;;;;;;8.42;97.53;101183.28;5053339;28;20272;-56
2021/11/21 11:37:38;;;;;;;;;;;;;;;8.40;96.72;101195.63;5053628;28;19975;-57
2021/11/21 11:40:05;;;;;;;;;;;;;;;8.48;98.15;101187.44;5051487;28;20007;-56
2021/11/21 11:42:38;;;;;;;;;;;;;;;8.41;97.70;101191.22;5069552;28;20368;-56
2021/11/21 11:45:09;;;;;;;;;;;;;;;8.38;97.76;101186.16;5066023;28;19978;-56
2021/11/21 11:47:37;;;;;;;;;;;;;;;8.40;97.25;101192.19;5067715;28;19929;-56
2021/11/21 11:50:05;;;;;;;;;;;;;;;8.43;97.87;101187.59;5053348;28;19928;-57
2021/11/21 11:53:10;;;;;;;;;;;;;;;8.51;97.29;101187.25;5050444;28;19925;-57
2021/11/21 11:55:37;;;;;;;;;;;;;;;8.58;98.00;101190.41;5052749;28;20428;-54
2021/11/21 11:58:04;;;;;;;;;;;;;;;8.61;94.82;101188.47;5036195;28;19925;-56
2021/11/21 12:00:31;;;;;;;;;;;;;;;8.64;95.92;101190.09;5042821;28;19925;-56
2021/11/21 12:02:59;;;;;;;;;;;;;;;8.67;94.65;101192.56;5070247;28;19925;-50
2021/11/21 12:05:29;;;;;;;;;;;;;;;8.65;93.53;101189.16;5070347;28;19966;-53
2021/11/21 12:08:13;;;;;;;;;;;;;;;8.72;94.43;101194.94;5054663;28;20015;-52
2021/11/21 12:10:50;;;;;;;;;;;;;;;8.72;94.73;101190.53;5053476;28;19924;-51
2021/11/21 12:13:27;;;;;;;;;;;;;;;8.74;92.13;101199.19;5066821;28;20296;-56
2021/11/21 12:15:54;;;;;;;;;;;;;;;8.92;90.14;101200.00;5049418;28;19939;-57
2021/11/21 12:18:44;;;;;;;;;;;;;;;8.95;91.10;101197.22;5050342;28;19971;-56
2021/11/21 12:21:11;;;;;;;;;;;;;;;8.93;91.16;101193.84;5050079;28;19925;-51
2021/11/21 12:23:41;;;;;;;;;;;;;;;8.92;90.99;101193.91;5051538;28;19932;-53
2021/11/21 12:26:26;;;;;;;;;;;;;;;8.95;89.15;101202.44;5052084;28;19928;-49
2021/11/21 12:28:59;;;;;;;;;;;;;;;8.92;90.30;101202.63;5054708;28;19925;-56
2021/11/21 12:31:37;;;;;;;;;;;;;;;8.94;90.50;101200.78;5069904;28;20560;-53
2021/11/21 12:34:23;;;;;;;;;;;;;;;9.05;88.49;101191.47;5051427;28;19929;-57
2021/11/21 12:37:08;;;;;;;;;;;;;;;9.16;88.63;101198.78;5051363;28;19936;-57
2021/11/21 12:39:35;;;;;;;;;;;;;;;9.18;86.80;101194.31;5051201;28;19966;-53
2021/11/21 12:42:06;;;;;;;;;;;;;;;9.16;87.84;101190.91;5067034;28;19982;-58